createdAt,value
2023-02-19T00:01:13.682Z,3.83
2023-02-19T00:03:50.371Z,3.30
2023-02-19T00:06:20.940Z,4.82
2023-02-19T00:08:55.650Z,2.80
2023-02-19T00:11:28.265Z,4.25
2023-02-19T00:14:00.212Z,2.55
2023-02-19T00:16:33.631Z,3.08
2023-02-19T00:19:05.032Z,2.10
2023-02-19T00:21:35.796Z,1.75
2023-02-19T00:24:10.252Z,2.45
2023-02-19T00:26:42.548Z,1.70
2023-02-19T00:29:15.225Z,1.70
2023-02-19T00:31:46.009Z,1.52
2023-02-19T00:34:18.408Z,1.67
2023-02-19T00:36:48.768Z,1.45
2023-02-19T00:39:21.569Z,2.92
2023-02-19T00:41:51.611Z,1.20
2023-02-19T00:44:22.427Z,1.92
2023-02-19T00:46:52.710Z,1.27
2023-02-19T00:49:25.809Z,2.05
2023-02-19T00:51:56.248Z,2.67
2023-02-19T00:54:28.865Z,2.30
2023-02-19T00:56:58.755Z,3.35
2023-02-19T00:59:28.706Z,4.20
2023-02-19T01:01:58.730Z,2.03
2023-02-19T01:04:28.668Z,3.63
2023-02-19T01:06:59.033Z,2.30
2023-02-19T01:09:31.681Z,2.13
2023-02-19T01:12:01.814Z,3.15
2023-02-19T01:14:32.016Z,2.33
2023-02-19T01:17:02.199Z,3.67
2023-02-19T01:19:32.356Z,4.95
2023-02-19T01:22:02.639Z,2.75
2023-02-19T01:24:36.078Z,5.43
2023-02-19T01:27:06.647Z,4.45
2023-02-19T01:29:36.877Z,3.90
2023-02-19T01:32:07.145Z,6.25
2023-02-19T01:34:37.392Z,6.97
2023-02-19T01:37:11.319Z,7.38
2023-02-19T01:39:44.238Z,8.32
2023-02-19T01:42:17.873Z,3.15
2023-02-19T01:45:26.446Z,1.55
2023-02-19T01:48:10.646Z,1.70
2023-02-19T01:50:47.443Z,1.27
2023-02-19T01:53:22.314Z,1.33
2023-02-19T01:55:58.382Z,0.70
2023-02-19T01:58:33.346Z,1.13
2023-02-19T02:03:35.418Z,1.88
2023-02-19T02:06:10.938Z,0.85
2023-02-19T02:08:54.343Z,3.67
2023-02-19T02:11:27.642Z,0.47
2023-02-19T02:13:57.907Z,0.40
2023-02-19T02:16:36.445Z,0.80
2023-02-19T02:19:23.853Z,0.52
2023-02-19T02:22:09.288Z,0.75
2023-02-19T02:25:09.191Z,0.30
2023-02-19T02:27:53.659Z,1.23
2023-02-19T02:30:36.149Z,1.10
2023-02-19T02:33:15.442Z,1.08
2023-02-19T02:35:50.508Z,1.60
2023-02-19T02:38:25.259Z,0.60
2023-02-19T02:40:58.732Z,3.17
2023-02-19T02:43:31.225Z,1.50
2023-02-19T02:46:03.923Z,1.73
2023-02-19T02:48:41.289Z,4.90
2023-02-19T02:51:18.998Z,2.10
2023-02-19T02:54:26.183Z,2.22
2023-02-19T02:57:02.652Z,1.67
2023-02-19T02:59:40.578Z,2.63
2023-02-19T03:02:14.981Z,2.65
2023-02-19T03:05:06.206Z,1.90
2023-02-19T03:07:41.636Z,3.53
2023-02-19T03:10:16.285Z,3.83
2023-02-19T03:13:01.040Z,3.05
2023-02-19T03:15:47.656Z,6.25
2023-02-19T03:18:34.642Z,6.45
2023-02-19T03:21:09.524Z,2.15
2023-02-19T03:23:54.523Z,2.08
2023-02-19T03:26:26.460Z,1.00
2023-02-19T03:29:11.668Z,0.85
2023-02-19T03:31:47.776Z,0.60
2023-02-19T03:34:26.245Z,1.27
2023-02-19T03:37:01.279Z,0.57
2023-02-19T03:39:32.036Z,0.63
2023-02-19T03:42:10.593Z,0.30
2023-02-19T03:44:45.847Z,0.70
2023-02-19T03:47:20.743Z,0.60
2023-02-19T03:50:01.722Z,0.50
2023-02-19T03:52:44.676Z,0.30
2023-02-19T03:55:20.023Z,0.60
2023-02-19T03:57:56.013Z,0.30
2023-02-19T04:00:33.036Z,0.30
2023-02-19T04:03:09.965Z,0.40
2023-02-19T04:05:48.170Z,0.47
2023-02-19T04:08:21.655Z,0.38
2023-02-19T04:10:58.243Z,0.32
2023-02-19T04:13:35.041Z,0.20
2023-02-19T04:16:11.979Z,0.65
2023-02-19T04:18:46.948Z,0.30
2023-02-19T04:21:20.056Z,0.60
2023-02-19T04:23:51.217Z,0.30
2023-02-19T04:26:24.648Z,0.40
2023-02-19T04:28:54.750Z,0.20
2023-02-19T04:31:26.255Z,0.50
2023-02-19T04:33:56.217Z,0.25
2023-02-19T04:36:29.042Z,0.38
2023-02-19T04:38:59.093Z,0.28
2023-02-19T04:41:29.070Z,0.30
2023-02-19T04:43:59.322Z,0.32
2023-02-19T04:46:29.653Z,0.98
2023-02-19T04:48:59.763Z,0.30
2023-02-19T04:51:32.502Z,0.20
2023-02-19T04:54:02.550Z,0.30
2023-02-19T04:56:32.524Z,0.20
2023-02-19T04:59:02.537Z,0.15
2023-02-19T05:01:32.791Z,0.10
2023-02-19T05:04:03.237Z,0.20
2023-02-19T05:06:36.385Z,0.20
2023-02-19T05:09:06.573Z,0.10
2023-02-19T05:11:36.634Z,0.30
2023-02-19T05:14:06.609Z,0.20
2023-02-19T05:16:36.520Z,0.20
2023-02-19T05:19:06.725Z,0.60
2023-02-19T05:21:39.630Z,0.20
2023-02-19T05:24:10.352Z,0.20
2023-02-19T05:26:40.450Z,0.20
2023-02-19T05:29:10.526Z,0.35
2023-02-19T05:31:40.478Z,0.30
2023-02-19T05:34:10.483Z,0.40
2023-02-19T05:36:43.803Z,0.17
2023-02-19T05:39:15.001Z,0.30
2023-02-19T05:41:45.099Z,0.30
2023-02-19T05:44:15.106Z,0.30
2023-02-19T05:46:45.091Z,1.00
2023-02-19T05:49:15.065Z,0.43
2023-02-19T05:51:47.816Z,0.30
2023-02-19T05:54:17.739Z,0.30
2023-02-19T05:56:47.680Z,0.95
2023-02-19T05:59:19.670Z,0.70
2023-02-19T06:01:50.604Z,0.43
2023-02-19T06:04:21.841Z,0.50
2023-02-19T06:06:54.436Z,1.95
2023-02-19T06:09:24.286Z,0.40
2023-02-19T06:11:54.207Z,0.50
2023-02-19T06:14:24.203Z,0.90
2023-02-19T06:16:54.110Z,0.55
2023-02-19T06:19:24.414Z,0.65
2023-02-19T06:21:57.075Z,0.30
2023-02-19T06:24:30.579Z,0.20
2023-02-19T06:27:00.613Z,0.40
2023-02-19T06:29:32.667Z,0.40
2023-02-19T06:32:02.773Z,0.73
2023-02-19T06:34:32.822Z,0.30
2023-02-19T06:37:05.670Z,0.88
2023-02-19T06:39:35.686Z,2.15
2023-02-19T06:42:06.358Z,0.40
2023-02-19T06:44:38.337Z,0.65
2023-02-19T06:47:08.460Z,2.13
2023-02-19T06:49:38.378Z,2.78
2023-02-19T06:52:11.343Z,1.92
2023-02-19T06:54:51.457Z,0.72
2023-02-19T06:57:21.505Z,0.90
2023-02-19T06:59:51.617Z,0.50
2023-02-19T07:02:21.876Z,1.05
2023-02-19T07:04:51.772Z,0.68
2023-02-19T07:07:24.516Z,0.55
2023-02-19T07:09:54.648Z,0.68
2023-02-19T07:12:24.729Z,0.40
2023-02-19T07:14:54.641Z,0.68
2023-02-19T07:17:24.690Z,0.35
2023-02-19T07:19:54.719Z,0.40
2023-02-19T07:22:29.325Z,0.35
2023-02-19T07:24:59.329Z,0.50
2023-02-19T07:27:29.403Z,1.05
2023-02-19T07:30:07.129Z,3.22
2023-02-19T07:32:37.557Z,0.75
2023-02-19T07:35:08.243Z,1.60
2023-02-19T07:37:40.954Z,1.42
2023-02-19T07:40:12.122Z,1.23
2023-02-19T07:42:42.517Z,2.03
2023-02-19T07:45:13.457Z,1.38
2023-02-19T07:47:43.529Z,1.20
2023-02-19T07:50:14.110Z,1.10
2023-02-19T07:52:46.834Z,0.70
2023-02-19T07:55:17.125Z,1.30
2023-02-19T07:57:47.103Z,1.98
2023-02-19T08:00:19.341Z,2.75
2023-02-19T08:03:01.940Z,1.55
2023-02-19T08:05:33.486Z,3.00
2023-02-19T08:08:08.125Z,2.10
2023-02-19T08:10:50.542Z,1.25
2023-02-19T08:13:23.461Z,1.40
2023-02-19T08:16:01.698Z,1.95
2023-02-19T08:18:38.097Z,1.00
2023-02-19T08:21:08.647Z,1.10
2023-02-19T08:23:41.682Z,1.00
2023-02-19T08:26:11.745Z,2.42
2023-02-19T08:28:42.130Z,2.20
2023-02-19T08:31:14.730Z,1.20
2023-02-19T08:33:44.989Z,2.35
2023-02-19T08:36:15.180Z,1.80
2023-02-19T08:38:48.360Z,1.55
2023-02-19T08:41:18.636Z,1.50
2023-02-19T08:43:48.863Z,1.40
2023-02-19T08:46:19.015Z,2.85
2023-02-19T08:48:49.288Z,1.67
2023-02-19T08:51:19.225Z,2.10
2023-02-19T08:53:51.968Z,1.40
2023-02-19T08:56:22.199Z,3.80
2023-02-19T08:58:52.239Z,1.40
2023-02-19T09:01:22.405Z,1.05
2023-02-19T09:03:52.651Z,1.35
2023-02-19T09:06:23.770Z,3.05
2023-02-19T09:08:56.434Z,1.98
2023-02-19T09:11:26.458Z,1.33
2023-02-19T09:13:59.419Z,1.02
2023-02-19T09:16:29.434Z,3.28
2023-02-19T09:18:59.428Z,2.92
2023-02-19T09:21:29.377Z,4.18
2023-02-19T09:24:02.226Z,4.38
2023-02-19T09:26:32.275Z,3.85
2023-02-19T09:29:05.468Z,5.38
2023-02-19T09:31:35.595Z,5.63
2023-02-19T09:34:05.793Z,5.40
2023-02-19T09:36:36.188Z,7.63
2023-02-19T09:39:12.671Z,4.60
2023-02-19T09:41:48.031Z,5.18
2023-02-19T09:44:26.312Z,3.85
2023-02-19T09:46:57.326Z,5.55
2023-02-19T09:49:31.656Z,4.10
2023-02-19T09:52:06.627Z,4.05
2023-02-19T09:54:40.983Z,2.88
2023-02-19T09:57:16.975Z,2.13
2023-02-19T09:59:50.915Z,3.90
2023-02-19T10:02:23.770Z,3.03
2023-02-19T10:04:54.974Z,2.22
2023-02-19T10:07:27.212Z,3.63
2023-02-19T10:10:02.889Z,3.20
2023-02-19T10:12:35.305Z,2.85
2023-02-19T10:15:13.830Z,3.78
2023-02-19T10:17:47.867Z,1.60
2023-02-19T10:20:22.494Z,2.20
2023-02-19T10:22:54.491Z,2.95
2023-02-19T10:25:27.280Z,1.77
2023-02-19T10:27:57.502Z,2.67
2023-02-19T10:30:30.860Z,1.95
2023-02-19T10:33:05.568Z,1.88
2023-02-19T10:35:40.915Z,1.90
2023-02-19T10:38:11.156Z,1.67
2023-02-19T10:40:48.044Z,3.20
2023-02-19T10:43:33.343Z,2.65
2023-02-19T10:46:06.536Z,0.95
2023-02-19T10:48:40.499Z,0.73
2023-02-19T10:51:20.957Z,0.70
2023-02-19T10:53:53.071Z,2.03
2023-02-19T10:56:31.541Z,0.82
2023-02-19T10:59:18.286Z,0.38
2023-02-19T11:01:59.891Z,1.90
2023-02-19T11:04:34.256Z,1.05
2023-02-19T11:07:11.780Z,1.85
2023-02-19T11:09:45.298Z,0.50
2023-02-19T11:12:28.234Z,1.45
2023-02-19T11:14:58.965Z,0.63
2023-02-19T11:17:31.342Z,1.05
2023-02-19T11:20:05.693Z,1.45
2023-02-19T11:22:38.438Z,2.03
2023-02-19T11:25:18.160Z,1.17
2023-02-19T11:28:02.764Z,0.52
2023-02-19T11:33:27.705Z,2.58
2023-02-19T11:36:23.871Z,1.15
2023-02-19T11:38:54.085Z,1.33
2023-02-19T11:41:38.263Z,0.98
2023-02-19T11:44:25.844Z,1.95
2023-02-19T11:47:19.409Z,1.50
2023-02-19T11:50:01.008Z,3.13
2023-02-19T11:52:39.631Z,1.48
2023-02-19T11:55:21.332Z,0.47
2023-02-19T11:57:59.161Z,1.40
2023-02-19T12:00:39.101Z,1.55
2023-02-19T12:03:32.392Z,0.32
2023-02-19T12:06:23.740Z,0.20
2023-02-19T12:09:32.064Z,1.95
2023-02-19T12:12:14.767Z,0.80
2023-02-19T12:15:20.301Z,1.38
2023-02-19T12:18:07.829Z,1.25
2023-02-19T12:20:49.519Z,1.67
2023-02-19T12:23:41.864Z,1.10
2023-02-19T12:26:22.924Z,1.33
2023-02-19T12:29:21.417Z,0.43
2023-02-19T12:32:24.115Z,1.25
2023-02-19T12:35:24.632Z,1.25
2023-02-19T12:38:05.400Z,2.03
2023-02-19T12:40:49.699Z,1.02
2023-02-19T12:43:22.274Z,1.98
2023-02-19T12:45:59.016Z,1.63
2023-02-19T12:48:48.013Z,1.58
2023-02-19T12:51:26.922Z,3.10
2023-02-19T12:54:02.979Z,2.78
2023-02-19T12:56:38.591Z,2.55
2023-02-19T12:59:15.547Z,1.10
2023-02-19T13:01:53.869Z,0.45
2023-02-19T13:04:34.137Z,1.27
2023-02-19T13:07:16.846Z,1.33
2023-02-19T13:09:54.045Z,0.30
2023-02-19T13:12:28.759Z,1.95
2023-02-19T13:15:02.983Z,2.88
2023-02-19T13:17:42.044Z,2.30
2023-02-19T13:20:21.052Z,1.42
2023-02-19T13:23:15.388Z,0.50
2023-02-19T13:26:06.743Z,1.75
2023-02-19T13:28:49.393Z,1.02
2023-02-19T13:31:48.542Z,0.70
2023-02-19T13:34:37.868Z,0.85
2023-02-19T13:37:08.663Z,0.40
2023-02-19T13:39:50.508Z,0.20
2023-02-19T13:42:30.423Z,0.85
2023-02-19T13:45:00.883Z,0.93
2023-02-19T13:47:50.224Z,0.60
2023-02-19T13:50:23.716Z,0.85
2023-02-19T13:52:54.718Z,1.00
2023-02-19T13:55:55.667Z,1.65
2023-02-19T13:58:56.707Z,0.40
2023-02-19T14:01:56.808Z,0.93
2023-02-19T14:04:29.335Z,3.42
2023-02-19T14:07:38.448Z,1.35
2023-02-19T14:10:15.585Z,2.13
2023-02-19T14:12:48.259Z,1.85
2023-02-19T14:15:44.527Z,0.38
2023-02-19T14:18:45.791Z,1.83
2023-02-19T14:21:19.673Z,0.50
2023-02-19T14:23:55.874Z,2.70
2023-02-19T14:26:27.781Z,1.75
2023-02-19T14:29:01.725Z,1.10
2023-02-19T14:31:34.229Z,0.28
2023-02-19T14:34:07.850Z,1.48
2023-02-19T14:36:50.483Z,0.35
2023-02-19T14:39:23.163Z,0.30
2023-02-19T14:41:55.984Z,0.88
2023-02-19T14:44:31.715Z,0.70
2023-02-19T14:47:07.236Z,1.67
2023-02-19T14:49:43.898Z,3.42
2023-02-19T14:52:20.334Z,0.30
2023-02-19T14:54:54.822Z,1.65
2023-02-19T14:57:30.176Z,0.95
2023-02-19T15:00:04.632Z,3.35
2023-02-19T15:02:35.793Z,0.50
2023-02-19T15:05:18.550Z,0.30
2023-02-19T15:07:48.878Z,0.40
2023-02-19T15:10:19.780Z,1.30
2023-02-19T15:12:53.473Z,1.10
2023-02-19T15:15:29.236Z,0.40
2023-02-19T15:18:01.336Z,1.35
2023-02-19T15:20:33.771Z,1.73
2023-02-19T15:23:04.963Z,1.20
2023-02-19T15:25:38.678Z,0.57
2023-02-19T15:28:22.752Z,0.90
2023-02-19T15:31:14.026Z,2.55
2023-02-19T15:33:52.504Z,1.95
2023-02-19T15:36:29.886Z,2.45
2023-02-19T15:39:02.492Z,2.78
2023-02-19T15:41:36.999Z,1.02
2023-02-19T15:44:25.654Z,1.67
2023-02-19T15:47:00.425Z,1.67
2023-02-19T15:49:38.081Z,2.65
2023-02-19T15:52:13.617Z,1.00
2023-02-19T15:54:53.069Z,2.25
2023-02-19T15:57:27.313Z,1.10
2023-02-19T16:02:32.925Z,2.25
2023-02-19T16:05:03.877Z,0.95
2023-02-19T16:07:34.957Z,1.88
2023-02-19T16:10:23.484Z,1.50
2023-02-19T16:13:00.884Z,1.33
2023-02-19T16:15:32.681Z,3.00
2023-02-19T16:18:05.287Z,2.28
2023-02-19T16:20:37.660Z,1.58
2023-02-19T16:23:16.126Z,2.28
2023-02-19T16:25:47.356Z,1.65
2023-02-19T16:28:24.427Z,1.92
2023-02-19T16:30:59.826Z,1.45
2023-02-19T16:33:43.564Z,1.73
2023-02-19T16:36:35.583Z,3.03
2023-02-19T16:39:17.607Z,4.30
2023-02-19T16:42:14.569Z,1.55
2023-02-19T16:44:46.893Z,2.05
2023-02-19T16:47:33.033Z,2.85
2023-02-19T16:50:13.979Z,1.20
2023-02-19T16:52:54.090Z,2.38
2023-02-19T16:55:24.349Z,1.55
2023-02-19T16:57:54.868Z,1.52
2023-02-19T17:00:27.325Z,1.40
2023-02-19T17:02:59.946Z,2.30
2023-02-19T17:05:35.106Z,2.53
2023-02-19T17:08:06.277Z,2.10
2023-02-19T17:10:37.292Z,3.20
2023-02-19T17:13:07.172Z,3.35
2023-02-19T17:15:37.165Z,2.08
2023-02-19T17:18:07.252Z,1.65
2023-02-19T17:20:41.316Z,1.27
2023-02-19T17:23:11.206Z,2.47
2023-02-19T17:25:41.251Z,1.10
2023-02-19T17:28:11.278Z,1.33
2023-02-19T17:30:41.331Z,1.10
2023-02-19T17:33:11.332Z,2.15
2023-02-19T17:35:45.759Z,2.42
2023-02-19T17:38:21.546Z,1.50
2023-02-19T17:40:51.537Z,2.60
2023-02-19T17:43:25.415Z,1.45
2023-02-19T17:45:55.758Z,2.30
2023-02-19T17:48:25.773Z,2.10
2023-02-19T17:50:58.824Z,2.33
2023-02-19T17:53:28.872Z,2.35
2023-02-19T17:55:58.880Z,2.60
2023-02-19T17:58:28.781Z,4.57
2023-02-19T18:00:59.050Z,3.28
2023-02-19T18:03:32.190Z,2.47
2023-02-19T18:06:04.777Z,4.07
2023-02-19T18:08:36.977Z,2.25
2023-02-19T18:11:09.823Z,2.25
2023-02-19T18:13:39.898Z,2.17
2023-02-19T18:16:10.429Z,3.50
2023-02-19T18:18:41.118Z,2.53
2023-02-19T18:21:15.678Z,2.35
2023-02-19T18:26:21.356Z,5.03
2023-02-19T18:28:51.240Z,2.50
2023-02-19T18:31:21.308Z,3.17
2023-02-19T18:33:51.412Z,1.75
2023-02-19T18:36:23.927Z,1.90
2023-02-19T18:38:53.875Z,2.58
2023-02-19T18:41:24.678Z,2.40
2023-02-19T18:43:54.754Z,1.83
2023-02-19T18:46:24.817Z,2.25
2023-02-19T18:48:54.895Z,2.25
2023-02-19T18:51:29.790Z,2.10
2023-02-19T18:54:01.777Z,2.05
2023-02-19T18:56:34.608Z,2.33
2023-02-19T18:59:04.775Z,2.63
2023-02-19T19:01:37.098Z,2.33
2023-02-19T19:04:07.912Z,3.05
2023-02-19T19:06:40.711Z,2.25
2023-02-19T19:09:11.008Z,2.17
2023-02-19T19:11:44.483Z,1.90
2023-02-19T19:14:14.685Z,2.05
2023-02-19T19:16:44.913Z,2.30
2023-02-19T19:19:15.157Z,1.67
2023-02-19T19:21:53.651Z,2.53
2023-02-19T19:24:24.724Z,2.20
2023-02-19T19:26:54.888Z,2.88
2023-02-19T19:29:25.958Z,2.20
2023-02-19T19:31:56.400Z,3.40
2023-02-19T19:34:28.361Z,2.42
2023-02-19T19:37:00.979Z,1.90
2023-02-19T19:39:33.313Z,1.88
2023-02-19T19:42:09.390Z,2.55
2023-02-19T19:44:39.370Z,2.70
2023-02-19T19:47:09.542Z,3.15
2023-02-19T19:49:41.123Z,2.83
2023-02-19T19:52:13.630Z,3.47
2023-02-19T19:54:44.805Z,3.22
2023-02-19T19:57:15.256Z,3.90
2023-02-19T19:59:45.095Z,3.72
2023-02-19T20:02:15.370Z,3.42
2023-02-19T20:04:47.050Z,6.13
2023-02-19T20:07:19.896Z,3.30
2023-02-19T20:09:51.420Z,2.95
2023-02-19T20:12:21.563Z,3.60
2023-02-19T20:14:51.549Z,2.92
2023-02-19T20:17:21.702Z,3.50
2023-02-19T20:19:55.370Z,2.92
2023-02-19T20:22:29.977Z,2.65
2023-02-19T20:24:59.871Z,2.13
2023-02-19T20:27:29.727Z,2.80
2023-02-19T20:30:02.102Z,2.03
2023-02-19T20:32:32.631Z,1.55
2023-02-19T20:35:02.564Z,2.33
2023-02-19T20:37:40.855Z,2.00
2023-02-19T20:40:14.285Z,2.00
2023-02-19T20:42:46.341Z,2.42
2023-02-19T20:45:18.504Z,2.30
2023-02-19T20:47:49.346Z,2.42
2023-02-19T20:50:23.334Z,2.67
2023-02-19T20:53:06.278Z,2.20
2023-02-19T20:55:36.506Z,3.15
2023-02-19T20:58:07.922Z,1.10
2023-02-19T21:00:41.135Z,1.48
2023-02-19T21:03:13.517Z,1.43
2023-02-19T21:05:46.118Z,1.75
2023-02-19T21:08:20.438Z,1.88
2023-02-19T21:10:55.637Z,1.20
2023-02-19T21:13:29.937Z,1.55
2023-02-19T21:16:00.589Z,1.77
2023-02-19T21:18:31.085Z,1.55
2023-02-19T21:21:01.154Z,3.50
2023-02-19T21:23:34.072Z,2.88
2023-02-19T21:26:05.246Z,1.70
2023-02-19T21:28:38.502Z,1.83
2023-02-19T21:31:08.817Z,2.10
2023-02-19T21:33:41.696Z,2.20
2023-02-19T21:36:12.744Z,1.90
2023-02-19T21:38:45.732Z,2.47
2023-02-19T21:41:15.535Z,1.88
2023-02-19T21:43:45.448Z,2.17
2023-02-19T21:46:21.012Z,1.90
2023-02-19T21:48:51.303Z,1.73
2023-02-19T21:51:23.794Z,2.55
2023-02-19T21:53:56.351Z,3.03
2023-02-19T21:56:32.868Z,2.17
2023-02-19T21:59:03.612Z,3.25
2023-02-19T22:01:39.497Z,2.33
2023-02-19T22:04:10.182Z,2.55
2023-02-19T22:06:40.925Z,2.38
2023-02-19T22:09:14.580Z,2.88
2023-02-19T22:11:45.573Z,3.00
2023-02-19T22:14:18.091Z,3.80
2023-02-19T22:16:50.451Z,2.58
2023-02-19T22:19:21.354Z,2.42
2023-02-19T22:21:52.568Z,2.72
2023-02-19T22:24:25.405Z,3.03
2023-02-19T22:26:58.802Z,2.42
2023-02-19T22:29:28.749Z,4.30
2023-02-19T22:32:02.940Z,2.05
2023-02-19T22:34:32.942Z,2.58
2023-02-19T22:37:02.968Z,2.63
2023-02-19T22:39:36.118Z,3.33
2023-02-19T22:42:05.970Z,2.83
2023-02-19T22:44:36.860Z,2.78
2023-02-19T22:47:06.973Z,3.42
2023-02-19T22:49:41.718Z,2.50
2023-02-19T22:52:13.387Z,4.22
2023-02-19T22:55:00.876Z,2.25
2023-02-19T22:57:30.848Z,2.90
2023-02-19T23:00:01.470Z,2.28
2023-02-19T23:02:36.011Z,2.75
2023-02-19T23:05:09.133Z,1.92
2023-02-19T23:07:39.010Z,2.13
2023-02-19T23:10:12.643Z,2.50
2023-02-19T23:12:43.795Z,2.70
2023-02-19T23:15:14.083Z,2.47
2023-02-19T23:17:44.160Z,2.75
2023-02-19T23:20:15.333Z,2.95
2023-02-19T23:22:45.300Z,2.97
2023-02-19T23:25:18.366Z,4.50
2023-02-19T23:27:48.373Z,2.30
2023-02-19T23:30:18.805Z,3.53
2023-02-19T23:32:51.621Z,3.50
2023-02-19T23:35:21.540Z,3.53
2023-02-19T23:37:53.300Z,4.00
2023-02-19T23:40:26.014Z,2.80
2023-02-19T23:42:56.872Z,4.25
2023-02-19T23:45:26.918Z,3.17
2023-02-19T23:47:56.866Z,2.97
2023-02-19T23:50:27.019Z,3.30
2023-02-19T23:52:59.231Z,5.63
2023-02-19T23:55:31.709Z,4.50
2023-02-19T23:58:01.488Z,3.67
